Time;durP1;ratioP1;P1;durP2;ratioP2;P2;SDS_P1;SDS_P2;PMS_P1;PMS_P2;Temp;Humidity;BMP_temperature;BMP_pressure;BME280_temperature;BME280_humidity;BME280_pressure;Samples;Min_cycle;Max_cycle;Signal;HPM_P1;HPM_P2
2023/11/28 00:00:12;;;;;;;28.23;14.77;;;;;;;0.06;100.00;99128.59;5094001;28;20589;-68
2023/11/28 00:02:39;;;;;;;26.63;13.23;;;;;;;0.05;100.00;99119.25;5084842;28;20216;-69
2023/11/28 00:05:08;;;;;;;25.17;13.63;;;;;;;0.01;100.00;99126.09;5084531;28;20216;-69
2023/11/28 00:07:34;;;;;;;23.73;13.20;;;;;;;0.00;100.00;99121.97;5085518;28;20210;-69
2023/11/28 00:10:00;;;;;;;25.47;14.73;;;;;;;-0.01;100.00;99123.03;5088173;28;20201;-69
2023/11/28 00:12:27;;;;;;;28.63;15.07;;;;;;;-0.03;100.00;99125.94;5086242;28;20229;-69
2023/11/28 00:14:53;;;;;;;29.13;15.23;;;;;;;-0.03;100.00;99115.56;5086999;28;20209;-69
2023/11/28 00:17:20;;;;;;;33.33;17.07;;;;;;;-0.06;100.00;99110.16;5088674;28;20205;-69
2023/11/28 00:19:46;;;;;;;32.10;15.40;;;;;;;-0.07;100.00;99108.63;5086247;28;20213;-69
2023/11/28 00:22:14;;;;;;;28.90;15.17;;;;;;;-0.09;100.00;99114.09;5085694;28;20198;-69
2023/11/28 00:24:40;;;;;;;44.73;18.00;;;;;;;-0.07;100.00;99108.63;5085539;28;20209;-68
2023/11/28 00:27:08;;;;;;;38.03;17.57;;;;;;;-0.08;100.00;99107.09;5094972;28;20210;-69
2023/11/28 00:29:34;;;;;;;30.43;15.00;;;;;;;-0.12;100.00;99106.13;5083025;28;20283;-69
2023/11/28 00:32:03;;;;;;;31.63;16.30;;;;;;;-0.12;100.00;99104.31;5086432;28;20756;-69
2023/11/28 00:34:29;;;;;;;48.13;21.23;;;;;;;-0.14;100.00;99098.63;5088450;28;20672;-69
2023/11/28 00:36:56;;;;;;;40.30;18.53;;;;;;;-0.14;100.00;99101.22;5085480;28;20205;-69
2023/11/28 00:39:23;;;;;;;37.50;17.47;;;;;;;-0.15;100.00;99104.13;5087490;28;20734;-67
2023/11/28 00:41:50;;;;;;;28.27;14.60;;;;;;;-0.16;100.00;99092.97;5088757;28;20206;-69
2023/11/28 00:44:16;;;;;;;22.83;14.40;;;;;;;-0.17;100.00;99095.09;5095968;28;20205;-68
2023/11/28 00:46:43;;;;;;;23.70;14.07;;;;;;;-0.20;100.00;99084.25;5090725;28;20206;-69
2023/11/28 00:49:12;;;;;;;27.13;14.93;;;;;;;-0.19;100.00;99087.63;5090211;28;20240;-67
2023/11/28 00:51:42;;;;;;;25.17;14.20;;;;;;;-0.20;100.00;99083.50;5092422;28;20210;-68
2023/11/28 00:54:09;;;;;;;24.73;13.13;;;;;;;-0.22;100.00;99083.78;5093218;28;20822;-69
2023/11/28 00:56:37;;;;;;;20.83;12.77;;;;;;;-0.22;100.00;99085.59;5089981;27;20796;-69
2023/11/28 00:59:04;;;;;;;24.13;12.93;;;;;;;-0.23;100.00;99078.88;5089539;27;20316;-69
2023/11/28 01:01:31;;;;;;;22.23;12.70;;;;;;;-0.25;100.00;99079.16;5091236;27;20213;-68
2023/11/28 01:03:57;;;;;;;24.30;13.03;;;;;;;-0.24;100.00;99079.94;5095366;27;20583;-69
2023/11/28 01:06:24;;;;;;;21.80;12.13;;;;;;;-0.25;100.00;99078.41;5092408;27;20205;-67
2023/11/28 01:08:51;;;;;;;22.20;12.57;;;;;;;-0.24;100.00;99077.34;5092453;27;20225;-69
2023/11/28 01:11:17;;;;;;;22.67;12.60;;;;;;;-0.27;100.00;99075.31;5094000;27;20778;-69
2023/11/28 01:13:45;;;;;;;23.80;12.53;;;;;;;-0.27;100.00;99077.91;5092632;27;20272;-69
2023/11/28 01:16:12;;;;;;;21.93;12.67;;;;;;;-0.31;100.00;99077.72;5090662;27;20621;-69
2023/11/28 01:18:38;;;;;;;18.17;12.07;;;;;;;-0.32;100.00;99083.97;5093620;27;20263;-68
2023/11/28 01:21:05;;;;;;;21.03;11.40;;;;;;;-0.30;100.00;99068.13;5099438;27;20210;-69
2023/11/28 01:23:31;;;;;;;20.37;11.43;;;;;;;-0.32;100.00;99069.47;5094491;27;20201;-69
2023/11/28 01:25:57;;;;;;;21.17;10.90;;;;;;;-0.32;100.00;99065.81;5105394;27;20221;-68
2023/11/28 01:28:24;;;;;;;16.40;10.40;;;;;;;-0.31;100.00;99066.59;5089033;27;20711;-68
2023/11/28 01:30:51;;;;;;;20.00;10.73;;;;;;;-0.32;100.00;99056.50;5094338;27;20606;-68
2023/11/28 01:33:18;;;;;;;15.57;9.70;;;;;;;-0.32;100.00;99056.50;5094171;27;20232;-68
2023/11/28 01:35:45;;;;;;;18.10;9.87;;;;;;;-0.35;100.00;99058.63;5090399;27;20705;-69
2023/11/28 01:38:11;;;;;;;18.17;9.50;;;;;;;-0.33;100.00;99070.53;5092009;27;20699;-69
2023/11/28 01:40:38;;;;;;;15.40;9.80;;;;;;;-0.35;100.00;99053.44;5089686;27;20205;-68
2023/11/28 01:43:04;;;;;;;15.73;9.30;;;;;;;-0.35;100.00;99045.66;5091594;28;20193;-69
2023/11/28 01:45:30;;;;;;;18.47;9.97;;;;;;;-0.33;100.00;99049.81;5091759;27;20702;-67
2023/11/28 01:47:58;;;;;;;15.90;9.57;;;;;;;-0.35;100.00;99047.50;5098197;27;20231;-68
2023/11/28 01:50:25;;;;;;;18.57;10.53;;;;;;;-0.37;100.00;99050.38;5089909;27;20197;-69
2023/11/28 01:52:52;;;;;;;17.53;9.80;;;;;;;-0.36;100.00;99051.91;5091183;27;20689;-68
2023/11/28 01:55:19;;;;;;;17.10;10.93;;;;;;;-0.37;100.00;99044.41;5094536;27;20764;-69
2023/11/28 01:57:46;;;;;;;21.47;12.07;;;;;;;-0.39;100.00;99049.13;5090529;27;21298;-68
2023/11/28 02:00:14;;;;;;;20.93;12.50;;;;;;;-0.37;100.00;99042.59;5095225;27;20758;-69
2023/11/28 02:02:41;;;;;;;26.03;13.07;;;;;;;-0.38;100.00;99044.72;5090444;28;20201;-68
2023/11/28 02:05:09;;;;;;;21.40;11.87;;;;;;;-0.38;100.00;99029.16;5091368;27;20202;-68
2023/11/28 02:07:35;;;;;;;23.17;12.20;;;;;;;-0.41;100.00;99033.09;5097280;27;20304;-69
2023/11/28 02:10:02;;;;;;;22.73;13.03;;;;;;;-0.42;100.00;99032.31;5087830;28;20217;-69
2023/11/28 02:12:27;;;;;;;23.67;12.80;;;;;;;-0.44;100.00;99023.31;5092880;28;20217;-69
2023/11/28 02:14:54;;;;;;;26.10;13.40;;;;;;;-0.43;100.00;99030.00;5093175;27;23955;-69
2023/11/28 02:17:21;;;;;;;23.10;13.07;;;;;;;-0.42;100.00;99024.53;5090319;27;20201;-69
2023/11/28 02:19:50;;;;;;;26.30;13.10;;;;;;;-0.43;100.00;99017.84;5086658;27;20288;-69
2023/11/28 02:22:18;;;;;;;23.53;13.47;;;;;;;-0.42;100.00;99013.41;5089079;27;20201;-67
2023/11/28 02:24:50;;;;;;;22.30;13.03;;;;;;;-0.43;100.00;99019.66;5093626;27;20211;-68
2023/11/28 02:27:18;;;;;;;24.13;13.97;;;;;;;-0.45;100.00;99004.38;5088091;27;20222;-69
2023/11/28 02:29:45;;;;;;;22.93;13.13;;;;;;;-0.45;100.00;99009.56;5087361;27;20228;-68
2023/11/28 02:32:12;;;;;;;25.47;13.50;;;;;;;-0.45;100.00;99006.22;5089615;27;20212;-69
2023/11/28 02:34:38;;;;;;;23.47;13.50;;;;;;;-0.50;100.00;99007.06;5090289;27;20204;-69
2023/11/28 02:37:07;;;;;;;25.07;13.33;;;;;;;-0.48;100.00;99006.03;5094382;27;20292;-68
2023/11/28 02:39:33;;;;;;;25.17;13.53;;;;;;;-0.48;100.00;99006.03;5090884;27;20236;-69
2023/11/28 02:41:59;;;;;;;23.63;12.13;;;;;;;-0.50;100.00;99001.88;5086730;27;20202;-69
2023/11/28 02:44:27;;;;;;;22.43;12.67;;;;;;;-0.50;100.00;99003.72;5090829;27;20202;-69
2023/11/28 02:46:53;;;;;;;21.03;11.60;;;;;;;-0.53;100.00;98998.38;5090916;27;20210;-69
2023/11/28 02:49:20;;;;;;;25.30;12.77;;;;;;;-0.52;100.00;98998.81;5091719;28;20260;-69
2023/11/28 02:51:46;;;;;;;20.93;13.30;;;;;;;-0.52;100.00;99005.06;5093706;27;20220;-69
2023/11/28 02:54:12;;;;;;;23.60;13.63;;;;;;;-0.53;100.00;98998.38;5093180;27;20289;-68
2023/11/28 02:56:39;;;;;;;21.70;11.73;;;;;;;-0.53;100.00;98991.34;5094016;27;20193;-69
2023/11/28 02:59:05;;;;;;;20.67;12.50;;;;;;;-0.53;100.00;98993.19;5089591;28;20611;-69
2023/11/28 03:01:33;;;;;;;24.07;12.87;;;;;;;-0.54;100.00;98984.63;5089700;27;20205;-68
2023/11/28 03:04:00;;;;;;;22.83;11.97;;;;;;;-0.57;100.00;98988.56;5093074;28;20199;-69
2023/11/28 03:06:27;;;;;;;22.57;12.80;;;;;;;-0.55;100.00;98988.28;5092681;27;20275;-69
2023/11/28 03:08:53;;;;;;;24.97;12.17;;;;;;;-0.56;100.00;98984.91;5091417;27;20229;-68
2023/11/28 03:11:20;;;;;;;20.80;11.97;;;;;;;-0.57;100.00;98983.38;5087059;27;20206;-68
2023/11/28 03:13:46;;;;;;;19.00;11.07;;;;;;;-0.55;100.00;98980.50;5087655;28;20244;-69
2023/11/28 03:16:12;;;;;;;20.53;11.40;;;;;;;-0.57;100.00;98976.66;5091427;28;20213;-69
2023/11/28 03:18:40;;;;;;;17.83;11.23;;;;;;;-0.56;100.00;98973.78;5090392;28;20217;-70
2023/11/28 03:21:07;;;;;;;25.27;11.53;;;;;;;-0.56;100.00;98976.38;5088647;27;20217;-69
2023/11/28 03:23:33;;;;;;;23.13;11.37;;;;;;;-0.58;100.00;98977.72;5089754;27;20193;-67
2023/11/28 03:25:59;;;;;;;18.20;10.40;;;;;;;-0.59;100.00;98974.34;5090934;27;20201;-69
2023/11/28 03:28:26;;;;;;;21.90;10.83;;;;;;;-0.58;100.00;98975.13;5090063;27;20228;-69
2023/11/28 03:30:52;;;;;;;21.27;11.80;;;;;;;-0.58;100.00;98982.91;5093632;27;20290;-69
2023/11/28 03:33:18;;;;;;;18.47;9.63;;;;;;;-0.61;100.00;98977.22;5087656;27;20226;-68
2023/11/28 03:35:46;;;;;;;23.20;11.67;;;;;;;-0.60;100.00;98970.25;5090628;28;20222;-69
2023/11/28 03:38:13;;;;;;;20.90;11.43;;;;;;;-0.60;100.00;98972.84;5090962;28;20232;-69
2023/11/28 03:40:40;;;;;;;21.90;10.87;;;;;;;-0.60;100.00;98976.19;5103217;27;20208;-69
2023/11/28 03:43:06;;;;;;;22.07;11.37;;;;;;;-0.59;100.00;98971.78;5091464;28;20659;-69
2023/11/28 03:45:32;;;;;;;22.53;10.63;;;;;;;-0.61;100.00;98971.31;5091015;28;20220;-69
2023/11/28 03:47:59;;;;;;;22.33;11.67;;;;;;;-0.61;100.00;98974.66;5090899;27;20342;-69
2023/11/28 03:50:25;;;;;;;25.83;12.63;;;;;;;-0.60;100.00;98973.59;5086040;28;20201;-69
2023/11/28 03:52:53;;;;;;;21.70;11.87;;;;;;;-0.61;100.00;98966.88;5094055;28;20202;-69
2023/11/28 03:55:19;;;;;;;19.47;12.07;;;;;;;-0.60;100.00;98968.41;5091567;28;20263;-68
2023/11/28 03:57:45;;;;;;;19.43;10.63;;;;;;;-0.61;100.00;98972.06;5089619;28;20228;-69
2023/11/28 04:00:13;;;;;;;18.17;10.33;;;;;;;-0.62;100.00;98967.94;5093743;28;20212;-69
2023/11/28 04:02:39;;;;;;;17.50;10.73;;;;;;;-0.61;100.00;98974.66;5092287;28;20556;-68
2023/11/28 04:05:06;;;;;;;19.17;10.27;;;;;;;-0.61;100.00;98973.91;5087056;28;20197;-69
2023/11/28 04:07:32;;;;;;;18.77;11.00;;;;;;;-0.62;100.00;98978.31;5091186;28;20765;-68
2023/11/28 04:10:00;;;;;;;23.17;11.93;;;;;;;-0.62;100.00;98975.72;5094146;28;22272;-69
2023/11/28 04:12:27;;;;;;;19.83;11.37;;;;;;;-0.61;100.00;98979.81;5090898;28;20206;-68
2023/11/28 04:14:53;;;;;;;18.23;11.20;;;;;;;-0.61;100.00;98977.22;5095007;28;20229;-68
2023/11/28 04:17:20;;;;;;;23.70;11.57;;;;;;;-0.60;100.00;98970.25;5088556;28;20295;-69
2023/11/28 04:19:47;;;;;;;20.80;11.17;;;;;;;-0.61;100.00;98979.06;5088950;28;20317;-70
2023/11/28 04:22:14;;;;;;;23.33;12.30;;;;;;;-0.60;100.00;98975.44;5091064;28;20207;-69
2023/11/28 04:24:42;;;;;;;20.63;11.67;;;;;;;-0.61;100.00;98979.06;5090813;28;20201;-68
2023/11/28 04:27:11;;;;;;;21.83;11.70;;;;;;;-0.62;100.00;98967.94;5095111;28;20663;-68
2023/11/28 04:29:38;;;;;;;24.20;12.87;;;;;;;-0.61;100.00;98968.72;5093314;28;20221;-69
2023/11/28 04:32:05;;;;;;;20.57;13.00;;;;;;;-0.63;100.00;98978.59;5086616;27;20197;-69
2023/11/28 04:34:32;;;;;;;21.60;12.60;;;;;;;-0.63;100.00;98972.66;5093249;27;20225;-67
2023/11/28 04:36:59;;;;;;;22.60;13.03;;;;;;;-0.64;100.00;98971.88;5098893;27;20604;-69
2023/11/28 04:39:25;;;;;;;25.43;13.50;;;;;;;-0.64;100.00;98973.72;5096635;27;20591;-68
2023/11/28 04:41:59;;;;;;;25.57;14.73;;;;;;;-0.64;100.00;98971.88;5093828;27;20225;-69
2023/11/28 04:44:26;;;;;;;21.83;13.60;;;;;;;-0.65;100.00;98978.13;5093246;27;20300;-69
2023/11/28 04:46:53;;;;;;;35.47;17.63;;;;;;;-0.66;100.00;98985.13;5092409;27;20221;-69
2023/11/28 04:49:20;;;;;;;60.80;27.43;;;;;;;-0.67;100.00;98978.41;5093839;27;20256;-70
2023/11/28 04:51:46;;;;;;;31.37;15.77;;;;;;;-0.66;100.00;98979.19;5087969;27;20215;-69
2023/11/28 04:54:13;;;;;;;26.80;13.23;;;;;;;-0.68;100.00;98983.13;5095229;27;20232;-69
2023/11/28 04:56:40;;;;;;;25.83;15.00;;;;;;;-0.70;100.00;98986.00;5088764;27;20206;-69
2023/11/28 04:59:06;;;;;;;26.53;14.33;;;;;;;-0.70;100.00;98980.81;5088702;27;20244;-68
2023/11/28 05:01:34;;;;;;;23.80;13.27;;;;;;;-0.69;100.00;98987.53;5092700;27;20205;-68
2023/11/28 05:04:00;;;;;;;21.97;12.57;;;;;;;-0.72;100.00;98988.88;5091952;27;20213;-68
2023/11/28 05:06:29;;;;;;;23.30;12.80;;;;;;;-0.70;100.00;98983.41;5094613;27;20611;-67
2023/11/28 05:08:55;;;;;;;21.80;11.87;;;;;;;-0.72;100.00;98982.94;5093070;27;20228;-69
2023/11/28 05:11:21;;;;;;;19.97;11.77;;;;;;;-0.73;100.00;98989.16;5093120;27;20260;-69
2023/11/28 05:13:48;;;;;;;25.93;13.87;;;;;;;-0.73;100.00;98985.81;5095182;27;20221;-69
2023/11/28 05:16:14;;;;;;;22.40;13.03;;;;;;;-0.76;100.00;98993.09;5093011;27;20310;-69
2023/11/28 05:18:43;;;;;;;19.83;12.03;;;;;;;-0.76;100.00;98985.31;5095558;27;20636;-68
2023/11/28 05:21:09;;;;;;;20.93;12.43;;;;;;;-0.75;100.00;98993.88;5088548;27;20205;-69
2023/11/28 05:23:36;;;;;;;20.73;11.67;;;;;;;-0.77;100.00;98994.16;5092664;27;20706;-69
2023/11/28 05:26:04;;;;;;;26.80;12.17;;;;;;;-0.77;100.00;99003.00;5090901;27;20705;-69
2023/11/28 05:28:30;;;;;;;22.40;11.33;;;;;;;-0.78;100.00;99001.47;5089556;28;20283;-67
2023/11/28 05:30:56;;;;;;;18.30;10.77;;;;;;;-0.82;100.00;98992.72;5087805;27;20215;-69
2023/11/28 05:33:23;;;;;;;20.43;11.57;;;;;;;-0.83;100.00;98991.94;5093059;27;20206;-69
2023/11/28 05:35:50;;;;;;;20.87;11.03;;;;;;;-0.83;100.00;98993.78;5085103;27;20209;-68
2023/11/28 05:38:17;;;;;;;19.40;10.43;;;;;;;-0.87;100.00;98991.00;5093548;27;20652;-69
2023/11/28 05:40:44;;;;;;;16.60;10.00;;;;;;;-0.86;100.00;99000.31;5084730;27;20213;-70
2023/11/28 05:43:10;;;;;;;18.60;10.63;;;;;;;-0.88;100.00;99000.59;5085029;27;20228;-70
2023/11/28 05:45:37;;;;;;;17.97;10.57;;;;;;;-0.89;100.00;98995.69;5088892;27;20710;-69
2023/11/28 05:48:04;;;;;;;22.43;9.83;;;;;;;-0.91;100.00;98995.22;5090476;27;20814;-69
2023/11/28 05:50:31;;;;;;;18.53;10.67;;;;;;;-0.91;100.00;99005.59;5083948;28;20221;-67
2023/11/28 05:53:00;;;;;;;18.17;9.83;;;;;;;-0.93;100.00;99006.94;5086255;27;20210;-68
2023/11/28 05:55:26;;;;;;;14.47;9.80;;;;;;;-0.95;100.00;99006.47;5083188;28;20305;-69
2023/11/28 05:57:53;;;;;;;17.73;10.27;;;;;;;-0.94;100.00;99013.94;5086354;27;20524;-69
2023/11/28 06:00:19;;;;;;;17.90;10.03;;;;;;;-0.98;100.00;99007.81;5092441;27;20217;-67
2023/11/28 06:02:47;;;;;;;17.97;9.73;;;;;;;-0.98;100.00;99016.31;5079550;27;20204;-69
2023/11/28 06:05:13;;;;;;;16.30;9.30;;;;;;;-1.01;100.00;99016.16;5089716;27;20198;-69
2023/11/28 06:07:40;;;;;;;16.50;9.47;;;;;;;-1.02;100.00;99015.38;5095355;27;20229;-68
2023/11/28 06:10:10;;;;;;;18.70;10.67;;;;;;;-1.03;100.00;99025.25;5090792;27;20205;-69
2023/11/28 06:12:37;;;;;;;18.67;10.80;;;;;;;-1.04;100.00;99014.13;5097195;27;20228;-69
2023/11/28 06:15:05;;;;;;;20.47;10.90;;;;;;;-1.05;100.00;99025.53;5092174;27;20302;-69
2023/11/28 06:17:31;;;;;;;18.03;9.97;;;;;;;-1.07;100.00;99038.00;5094685;27;20201;-69
2023/11/28 06:19:57;;;;;;;21.97;10.30;;;;;;;-1.10;100.00;99025.63;5091558;27;20726;-69
2023/11/28 06:22:24;;;;;;;23.37;12.03;;;;;;;-1.10;100.00;99033.41;5098900;27;20497;-69
2023/11/28 06:24:50;;;;;;;22.47;11.80;;;;;;;-1.13;100.00;99039.91;5090332;27;20193;-69
2023/11/28 06:27:18;;;;;;;22.77;11.53;;;;;;;-1.13;100.00;99037.31;5093255;27;20280;-69
2023/11/28 06:29:44;;;;;;;22.87;11.93;;;;;;;-1.14;100.00;99044.63;5091381;27;20230;-69
2023/11/28 06:32:11;;;;;;;19.73;11.60;;;;;;;-1.15;100.00;99035.31;5089225;28;20201;-69
2023/11/28 06:34:37;;;;;;;22.60;13.23;;;;;;;-1.16;100.00;99050.09;5094736;27;20221;-68
2023/11/28 06:37:03;;;;;;;21.37;12.23;;;;;;;-1.15;100.00;99045.69;5088378;27;20284;-69
2023/11/28 06:39:33;;;;;;;20.83;12.03;;;;;;;-1.17;100.00;99049.31;5095670;27;20210;-69
2023/11/28 06:42:00;;;;;;;21.47;12.10;;;;;;;-1.17;100.00;99057.06;5090242;27;20252;-69
2023/11/28 06:44:28;;;;;;;21.00;12.23;;;;;;;-1.18;100.00;99054.78;5093397;27;20385;-67
2023/11/28 06:46:55;;;;;;;20.97;11.60;;;;;;;-1.19;100.00;99055.81;5086455;27;20212;-69
2023/11/28 06:49:21;;;;;;;19.57;11.57;;;;;;;-1.18;100.00;99054.00;5091369;27;20226;-69
2023/11/28 06:51:48;;;;;;;23.60;12.47;;;;;;;-1.19;100.00;99068.00;5087421;27;20571;-69
2023/11/28 06:54:15;;;;;;;23.07;11.47;;;;;;;-1.19;100.00;99071.34;5090853;27;20226;-69
2023/11/28 06:56:41;;;;;;;21.97;12.50;;;;;;;-1.19;100.00;99070.59;5092137;27;20201;-69
2023/11/28 06:59:07;;;;;;;21.83;12.27;;;;;;;-1.21;100.00;99075.31;5088092;28;20620;-67
2023/11/28 07:01:35;;;;;;;19.90;11.60;;;;;;;-1.20;100.00;99082.78;5093995;27;20224;-69
2023/11/28 07:04:01;;;;;;;19.90;12.00;;;;;;;-1.21;100.00;99089.00;5091097;27;20209;-69
2023/11/28 07:06:28;;;;;;;21.63;12.03;;;;;;;-1.21;100.00;99083.81;5092837;27;20209;-69
2023/11/28 07:08:54;;;;;;;21.20;11.23;;;;;;;-1.22;100.00;99097.84;5090897;27;20587;-69
2023/11/28 07:11:21;;;;;;;21.97;10.97;;;;;;;-1.20;100.00;99102.75;5091521;27;20235;-69
2023/11/28 07:13:47;;;;;;;23.13;12.87;;;;;;;-1.23;100.00;99097.06;5093563;27;20213;-69
2023/11/28 07:16:14;;;;;;;21.70;12.57;;;;;;;-1.20;100.00;99110.50;5094932;27;20255;-69
2023/11/28 07:18:42;;;;;;;22.10;12.07;;;;;;;-1.24;100.00;99117.28;5095355;27;20221;-69
2023/11/28 07:21:09;;;;;;;22.03;12.03;;;;;;;-1.21;100.00;99111.56;5094466;27;20438;-69
2023/11/28 07:23:37;;;;;;;20.93;12.77;;;;;;;-1.23;100.00;99112.59;5092615;27;20204;-70
2023/11/28 07:26:03;;;;;;;27.07;13.33;;;;;;;-1.26;100.00;99111.66;5088846;27;20202;-69
2023/11/28 07:28:30;;;;;;;26.57;12.77;;;;;;;-1.23;100.00;99107.41;5095512;27;20275;-69
2023/11/28 07:30:56;;;;;;;25.27;12.87;;;;;;;-1.26;100.00;99120.16;5092005;27;20209;-68
2023/11/28 07:33:23;;;;;;;27.53;13.53;;;;;;;-1.26;100.00;99124.59;5102079;27;20208;-69
2023/11/28 07:35:50;;;;;;;26.37;13.40;;;;;;;-1.28;100.00;99126.69;5094139;27;20232;-69
2023/11/28 07:38:17;;;;;;;23.20;13.03;;;;;;;-1.28;100.00;99121.50;5089511;28;21685;-69
2023/11/28 07:40:43;;;;;;;24.43;12.67;;;;;;;-1.29;100.00;99125.91;5093098;28;20417;-69
2023/11/28 07:43:10;;;;;;;25.60;14.07;;;;;;;-1.31;100.00;99122.09;5092244;28;20208;-69
2023/11/28 07:45:36;;;;;;;32.97;15.30;;;;;;;-1.30;100.00;99126.19;5088593;28;20575;-69
2023/11/28 07:48:03;;;;;;;25.50;12.97;;;;;;;-1.32;100.00;99134.25;5090640;28;20725;-69
2023/11/28 07:50:30;;;;;;;28.63;13.93;;;;;;;-1.31;100.00;99137.63;5088128;28;20745;-69
2023/11/28 07:52:58;;;;;;;25.60;12.87;;;;;;;-1.33;100.00;99143.81;5091370;28;20205;-67
2023/11/28 07:55:24;;;;;;;25.40;13.63;;;;;;;-1.33;100.00;99150.06;5090152;28;20444;-69
2023/11/28 07:57:51;;;;;;;32.87;14.30;;;;;;;-1.33;100.00;99150.06;5092332;28;20244;-69
2023/11/28 08:00:20;;;;;;;28.00;14.17;;;;;;;-1.32;100.00;99154.94;5088338;28;20247;-67
2023/11/28 08:02:46;;;;;;;27.60;13.80;;;;;;;-1.31;100.00;99163.50;5089931;28;20292;-68
2023/11/28 08:05:13;;;;;;;26.33;13.97;;;;;;;-1.31;100.00;99147.97;5091276;28;20205;-69
2023/11/28 08:07:39;;;;;;;27.33;14.13;;;;;;;-1.31;100.00;99153.91;5096033;27;20392;-68
2023/11/28 08:10:11;;;;;;;26.30;13.57;;;;;;;-1.32;100.00;99167.91;5095207;27;20200;-69
2023/11/28 08:12:38;;;;;;;28.93;14.30;;;;;;;-1.27;100.00;99160.06;5093552;28;20236;-69
2023/11/28 08:15:05;;;;;;;30.33;15.33;;;;;;;-1.25;100.00;99170.13;5093701;28;20217;-69
2023/11/28 08:17:32;;;;;;;25.53;13.50;;;;;;;-1.25;100.00;99177.91;5096247;27;20226;-69
2023/11/28 08:19:59;;;;;;;28.23;14.70;;;;;;;-1.22;100.00;99172.94;5098040;27;20205;-69
2023/11/28 08:22:26;;;;;;;34.43;15.17;;;;;;;-1.20;100.00;99170.81;5097912;27;20209;-69
2023/11/28 08:24:52;;;;;;;28.47;13.97;;;;;;;-1.21;100.00;99178.88;5101164;27;20737;-69
2023/11/28 08:27:20;;;;;;;28.17;14.23;;;;;;;-1.21;100.00;99179.63;5102510;27;20201;-69
2023/11/28 08:29:46;;;;;;;28.50;14.73;;;;;;;-1.18;100.00;99176.50;5091902;28;20212;-69
2023/11/28 08:32:13;;;;;;;32.87;14.70;;;;;;;-1.17;100.00;99183.97;5093387;28;20267;-69
2023/11/28 08:34:39;;;;;;;27.67;14.80;;;;;;;-1.15;100.00;99178.50;5092559;28;20218;-69
2023/11/28 08:37:05;;;;;;;30.33;14.33;;;;;;;-1.13;100.00;99188.59;5100848;27;20208;-69
2023/11/28 08:39:32;;;;;;;29.43;15.23;;;;;;;-1.13;100.00;99189.38;5096404;27;20564;-69
2023/11/28 08:41:59;;;;;;;28.90;14.00;;;;;;;-1.10;100.00;99188.78;5094243;27;20693;-69
2023/11/28 08:44:27;;;;;;;27.87;13.77;;;;;;;-1.06;100.00;99192.34;5098870;27;20206;-69
2023/11/28 08:46:53;;;;;;;27.43;14.77;;;;;;;-1.05;100.00;99188.72;5099682;27;20707;-69
2023/11/28 08:49:22;;;;;;;30.93;14.70;;;;;;;-1.02;100.00;99201.09;5093076;28;20232;-68
2023/11/28 08:51:48;;;;;;;24.60;14.13;;;;;;;-1.00;100.00;99196.41;5092194;28;20209;-69
2023/11/28 08:54:15;;;;;;;31.27;14.57;;;;;;;-0.95;100.00;99211.13;5089997;28;20284;-69
2023/11/28 08:56:41;;;;;;;28.40;14.13;;;;;;;-0.93;100.00;99209.00;5098074;27;20210;-69
2023/11/28 08:59:08;;;;;;;30.07;14.73;;;;;;;-0.89;100.00;99207.38;5093729;28;20590;-69
2023/11/28 09:01:35;;;;;;;27.07;14.77;;;;;;;-0.88;100.00;99213.03;5095461;27;20194;-69
2023/11/28 09:04:02;;;;;;;27.90;14.13;;;;;;;-0.84;100.00;99200.28;5096737;28;20206;-69
2023/11/28 09:06:28;;;;;;;30.30;14.37;;;;;;;-0.79;100.00;99210.56;5094301;27;20204;-69
2023/11/28 09:08:55;;;;;;;33.77;15.23;;;;;;;-0.76;100.00;99217.78;5093274;27;20236;-70
2023/11/28 09:11:21;;;;;;;39.00;18.07;;;;;;;-0.72;100.00;99216.19;5093939;28;20209;-69
2023/11/28 09:13:48;;;;;;;28.60;14.80;;;;;;;-0.68;100.00;99227.50;5098612;27;20243;-68
2023/11/28 09:16:14;;;;;;;24.87;12.83;;;;;;;-0.65;100.00;99226.94;5097016;27;20213;-69
2023/11/28 09:18:42;;;;;;;30.00;14.00;;;;;;;-0.62;100.00;99229.72;5102676;27;20227;-69
2023/11/28 09:21:08;;;;;;;24.60;12.83;;;;;;;-0.58;99.93;99236.94;5098733;27;20200;-68
2023/11/28 09:23:35;;;;;;;26.93;13.80;;;;;;;-0.55;99.94;99237.13;5097630;27;20210;-69
2023/11/28 09:26:01;;;;;;;28.47;13.97;;;;;;;-0.50;100.00;99244.81;5087757;28;20699;-69
2023/11/28 09:28:28;;;;;;;26.60;13.40;;;;;;;-0.48;100.00;99242.72;5099683;27;20290;-69
2023/11/28 09:30:54;;;;;;;29.23;14.27;;;;;;;-0.46;99.19;99243.97;5091473;28;20205;-69
2023/11/28 09:33:21;;;;;;;33.47;14.27;;;;;;;-0.41;99.64;99243.88;5091903;28;20201;-69
2023/11/28 09:35:49;;;;;;;31.33;13.77;;;;;;;-0.36;100.00;99253.41;5091412;27;20259;-69
2023/11/28 09:38:15;;;;;;;25.87;13.33;;;;;;;-0.32;99.49;99251.75;5095292;28;20762;-69
2023/11/28 09:40:41;;;;;;;29.90;16.60;;;;;;;-0.29;99.90;99257.13;5092720;28;20209;-69
2023/11/28 09:43:08;;;;;;;27.10;13.60;;;;;;;-0.29;97.96;99257.13;5087112;27;20217;-69
2023/11/28 09:45:36;;;;;;;24.23;12.53;;;;;;;-0.25;99.40;99250.31;5091590;27;20415;-69
2023/11/28 09:48:06;;;;;;;23.80;12.47;;;;;;;-0.28;98.17;99250.13;5090816;27;20619;-69
2023/11/28 09:50:33;;;;;;;20.43;11.83;;;;;;;-0.29;97.83;99244.16;5097519;27;21134;-69
2023/11/28 09:53:01;;;;;;;23.87;11.70;;;;;;;-0.27;96.79;99254.25;5095094;27;20207;-69
2023/11/28 09:55:28;;;;;;;23.77;12.03;;;;;;;-0.28;97.60;99258.69;5096078;27;20722;-69
2023/11/28 09:57:56;;;;;;;18.03;10.33;;;;;;;-0.27;97.96;99255.03;5092872;27;20237;-68
2023/11/28 10:00:23;;;;;;;23.77;12.60;;;;;;;-0.26;98.30;99264.34;5086856;27;20206;-69
2023/11/28 10:02:51;;;;;;;21.87;11.57;;;;;;;-0.28;97.32;99260.50;5091087;27;20224;-70
2023/11/28 10:05:19;;;;;;;22.70;11.90;;;;;;;-0.29;97.26;99272.69;5094887;27;20210;-68
2023/11/28 10:07:48;;;;;;;18.73;9.73;;;;;;;-0.32;96.33;99265.50;5091734;27;20310;-69
2023/11/28 10:10:21;;;;;;;21.47;11.00;;;;;;;-0.32;96.85;99265.50;5082810;28;20205;-69
2023/11/28 10:12:50;;;;;;;20.40;11.00;;;;;;;-0.28;96.89;99270.88;5087100;27;20685;-69
2023/11/28 10:15:19;;;;;;;18.37;9.90;;;;;;;-0.27;97.92;99256.84;5090220;27;20556;-69
2023/11/28 10:17:45;;;;;;;23.63;11.63;;;;;;;-0.25;97.39;99270.31;5095096;27;20232;-69
2023/11/28 10:20:11;;;;;;;24.00;11.50;;;;;;;-0.27;96.39;99267.22;5095758;27;20479;-69
2023/11/28 10:22:38;;;;;;;24.57;11.20;;;;;;;-0.25;96.88;99259.94;5097701;27;20214;-68
2023/11/28 10:25:07;;;;;;;26.93;12.03;;;;;;;-0.25;96.71;99263.28;5095377;27;20212;-69
2023/11/28 10:27:39;;;;;;;20.67;10.13;;;;;;;-0.26;95.91;99263.56;5096606;27;20212;-69
2023/11/28 10:30:10;;;;;;;25.73;11.87;;;;;;;-0.27;96.86;99270.59;5096084;27;20559;-69
2023/11/28 10:32:37;;;;;;;20.97;11.07;;;;;;;-0.26;97.25;99264.34;5097168;27;20210;-68
2023/11/28 10:35:05;;;;;;;23.43;11.93;;;;;;;-0.25;96.34;99272.91;5098203;27;20227;-68
2023/11/28 10:37:35;;;;;;;22.63;11.07;;;;;;;-0.24;95.97;99279.63;5092821;27;20201;-69
2023/11/28 10:40:04;;;;;;;21.33;10.80;;;;;;;-0.22;95.74;99273.13;5100643;27;20231;-68
2023/11/28 10:42:30;;;;;;;22.17;11.27;;;;;;;-0.20;96.06;99270.25;5095662;27;20198;-69
2023/11/28 10:44:59;;;;;;;22.90;11.67;;;;;;;-0.14;97.06;99274.28;5098475;27;20213;-69
2023/11/28 10:47:28;;;;;;;24.47;12.90;;;;;;;-0.12;96.81;99277.34;5095215;27;20190;-69
2023/11/28 10:49:55;;;;;;;27.53;12.50;;;;;;;-0.08;96.53;99278.31;5099569;27;20220;-68
2023/11/28 10:52:23;;;;;;;24.97;12.40;;;;;;;-0.05;96.28;99278.50;5098096;27;20458;-69
2023/11/28 10:54:53;;;;;;;24.23;11.67;;;;;;;-0.01;96.78;99283.88;5094068;28;20828;-69
2023/11/28 10:57:26;;;;;;;26.30;12.30;;;;;;;0.01;95.65;99279.19;5095301;27;20205;-69
2023/11/28 10:59:54;;;;;;;23.70;12.20;;;;;;;0.05;96.21;99278.31;5096985;27;20213;-68
2023/11/28 11:02:23;;;;;;;22.13;11.67;;;;;;;0.09;96.26;99281.09;5096176;27;20208;-70
2023/11/28 11:04:49;;;;;;;24.67;12.50;;;;;;;0.11;95.61;99284.19;5096683;27;20209;-69
2023/11/28 11:07:16;;;;;;;21.63;11.73;;;;;;;0.13;95.43;99285.44;5097117;28;20190;-70
2023/11/28 11:09:44;;;;;;;22.57;11.07;;;;;;;0.18;96.26;99282.75;5092104;27;20229;-69